sensor_id;sensor_type;location;lat;lon;timestamp;P1;durP1;ratioP1;P2;durP2;ratioP2
31382;SDS011;18014;49.228;11.102;2023-04-01T00:01:38;5.00;;;1.17;;
31382;SDS011;18014;49.228;11.102;2023-04-01T00:03:40;2.58;;;1.02;;
31382;SDS011;18014;49.228;11.102;2023-04-01T00:05:41;4.75;;;1.30;;
31382;SDS011;18014;49.228;11.102;2023-04-01T00:07:42;6.50;;;1.15;;
31382;SDS011;18014;49.228;11.102;2023-04-01T00:09:43;4.10;;;1.77;;
31382;SDS011;18014;49.228;11.102;2023-04-01T00:11:44;5.38;;;1.33;;
31382;SDS011;18014;49.228;11.102;2023-04-01T00:13:45;6.85;;;1.23;;
31382;SDS011;18014;49.228;11.102;2023-04-01T00:15:46;5.05;;;1.20;;
31382;SDS011;18014;49.228;11.102;2023-04-01T00:17:48;4.38;;;1.13;;
31382;SDS011;18014;49.228;11.102;2023-04-01T00:19:49;3.63;;;0.90;;
31382;SDS011;18014;49.228;11.102;2023-04-01T00:21:50;4.18;;;1.50;;
31382;SDS011;18014;49.228;11.102;2023-04-01T00:23:52;2.78;;;0.82;;
31382;SDS011;18014;49.228;11.102;2023-04-01T00:25:53;5.78;;;0.95;;
31382;SDS011;18014;49.228;11.102;2023-04-01T00:27:54;3.47;;;1.08;;
31382;SDS011;18014;49.228;11.102;2023-04-01T00:29:55;5.22;;;0.90;;
31382;SDS011;18014;49.228;11.102;2023-04-01T00:31:56;4.43;;;0.80;;
31382;SDS011;18014;49.228;11.102;2023-04-01T00:33:57;5.57;;;1.27;;
31382;SDS011;18014;49.228;11.102;2023-04-01T00:36:05;2.50;;;0.88;;
31382;SDS011;18014;49.228;11.102;2023-04-01T00:38:10;6.35;;;1.13;;
31382;SDS011;18014;49.228;11.102;2023-04-01T00:40:28;6.78;;;1.00;;
31382;SDS011;18014;49.228;11.102;2023-04-01T00:42:29;2.53;;;0.90;;
31382;SDS011;18014;49.228;11.102;2023-04-01T00:44:33;4.55;;;0.85;;
31382;SDS011;18014;49.228;11.102;2023-04-01T00:46:34;4.75;;;0.80;;
31382;SDS011;18014;49.228;11.102;2023-04-01T00:48:38;3.33;;;0.93;;
31382;SDS011;18014;49.228;11.102;2023-04-01T00:50:42;5.28;;;1.30;;
31382;SDS011;18014;49.228;11.102;2023-04-01T00:52:48;4.47;;;0.88;;
31382;SDS011;18014;49.228;11.102;2023-04-01T00:54:51;3.47;;;0.90;;
31382;SDS011;18014;49.228;11.102;2023-04-01T00:57:00;3.42;;;0.77;;
31382;SDS011;18014;49.228;11.102;2023-04-01T00:59:13;3.42;;;1.05;;
31382;SDS011;18014;49.228;11.102;2023-04-01T01:01:21;4.00;;;0.90;;
31382;SDS011;18014;49.228;11.102;2023-04-01T01:03:24;2.17;;;0.68;;
31382;SDS011;18014;49.228;11.102;2023-04-01T01:05:29;3.95;;;0.90;;
31382;SDS011;18014;49.228;11.102;2023-04-01T01:08:01;2.38;;;0.73;;
31382;SDS011;18014;49.228;11.102;2023-04-01T01:10:31;1.95;;;0.70;;
31382;SDS011;18014;49.228;11.102;2023-04-01T01:15:06;2.13;;;0.65;;
31382;SDS011;18014;49.228;11.102;2023-04-01T01:33:31;1.75;;;0.70;;
31382;SDS011;18014;49.228;11.102;2023-04-01T01:35:53;1.92;;;0.47;;
31382;SDS011;18014;49.228;11.102;2023-04-01T01:38:06;5.20;;;0.80;;
31382;SDS011;18014;49.228;11.102;2023-04-01T01:40:11;3.55;;;0.80;;
31382;SDS011;18014;49.228;11.102;2023-04-01T01:42:14;2.65;;;0.50;;
31382;SDS011;18014;49.228;11.102;2023-04-01T01:44:17;3.30;;;0.52;;
31382;SDS011;18014;49.228;11.102;2023-04-01T01:46:20;1.80;;;0.55;;
31382;SDS011;18014;49.228;11.102;2023-04-01T01:48:23;4.22;;;0.77;;
31382;SDS011;18014;49.228;11.102;2023-04-01T01:50:26;1.33;;;0.70;;
31382;SDS011;18014;49.228;11.102;2023-04-01T01:52:27;2.90;;;0.75;;
31382;SDS011;18014;49.228;11.102;2023-04-01T01:54:28;1.73;;;0.68;;
31382;SDS011;18014;49.228;11.102;2023-04-01T01:56:30;2.92;;;0.75;;
31382;SDS011;18014;49.228;11.102;2023-04-01T01:58:33;3.30;;;0.68;;
31382;SDS011;18014;49.228;11.102;2023-04-01T02:00:41;3.20;;;0.77;;
31382;SDS011;18014;49.228;11.102;2023-04-01T02:02:46;2.75;;;0.57;;
31382;SDS011;18014;49.228;11.102;2023-04-01T02:04:48;4.25;;;0.75;;
31382;SDS011;18014;49.228;11.102;2023-04-01T02:06:54;1.80;;;0.67;;
31382;SDS011;18014;49.228;11.102;2023-04-01T02:09:00;3.50;;;1.15;;
31382;SDS011;18014;49.228;11.102;2023-04-01T02:11:10;0.82;;;0.50;;
31382;SDS011;18014;49.228;11.102;2023-04-01T02:13:16;2.63;;;0.65;;
31382;SDS011;18014;49.228;11.102;2023-04-01T02:15:23;4.20;;;0.63;;
31382;SDS011;18014;49.228;11.102;2023-04-01T02:17:27;2.22;;;0.68;;
31382;SDS011;18014;49.228;11.102;2023-04-01T02:21:54;1.08;;;0.55;;
31382;SDS011;18014;49.228;11.102;2023-04-01T02:23:59;1.70;;;0.57;;
31382;SDS011;18014;49.228;11.102;2023-04-01T02:26:02;2.20;;;0.50;;
31382;SDS011;18014;49.228;11.102;2023-04-01T02:28:06;2.08;;;0.40;;
31382;SDS011;18014;49.228;11.102;2023-04-01T02:30:11;3.47;;;0.80;;
31382;SDS011;18014;49.228;11.102;2023-04-01T02:32:13;3.20;;;0.63;;
31382;SDS011;18014;49.228;11.102;2023-04-01T02:34:16;2.97;;;0.60;;
31382;SDS011;18014;49.228;11.102;2023-04-01T02:36:18;1.80;;;0.63;;
31382;SDS011;18014;49.228;11.102;2023-04-01T02:38:19;2.55;;;0.73;;
31382;SDS011;18014;49.228;11.102;2023-04-01T02:40:20;1.45;;;0.85;;
31382;SDS011;18014;49.228;11.102;2023-04-01T02:42:21;2.78;;;0.60;;
31382;SDS011;18014;49.228;11.102;2023-04-01T02:44:22;1.75;;;0.52;;
31382;SDS011;18014;49.228;11.102;2023-04-01T02:46:24;3.15;;;0.52;;
31382;SDS011;18014;49.228;11.102;2023-04-01T02:48:25;2.65;;;0.50;;
31382;SDS011;18014;49.228;11.102;2023-04-01T02:50:26;2.75;;;0.57;;
31382;SDS011;18014;49.228;11.102;2023-04-01T02:52:27;2.33;;;0.70;;
31382;SDS011;18014;49.228;11.102;2023-04-01T02:54:29;2.95;;;0.70;;
31382;SDS011;18014;49.228;11.102;2023-04-01T02:56:30;2.00;;;0.73;;
31382;SDS011;18014;49.228;11.102;2023-04-01T02:58:31;3.20;;;0.70;;
31382;SDS011;18014;49.228;11.102;2023-04-01T03:00:32;2.95;;;0.60;;
31382;SDS011;18014;49.228;11.102;2023-04-01T03:02:33;2.67;;;0.82;;
31382;SDS011;18014;49.228;11.102;2023-04-01T03:04:35;5.00;;;1.15;;
31382;SDS011;18014;49.228;11.102;2023-04-01T03:06:36;6.28;;;1.10;;
31382;SDS011;18014;49.228;11.102;2023-04-01T03:08:37;2.97;;;0.63;;
31382;SDS011;18014;49.228;11.102;2023-04-01T03:10:38;5.45;;;0.85;;
31382;SDS011;18014;49.228;11.102;2023-04-01T03:12:39;4.53;;;0.93;;
31382;SDS011;18014;49.228;11.102;2023-04-01T03:14:40;2.20;;;0.70;;
31382;SDS011;18014;49.228;11.102;2023-04-01T03:16:41;3.85;;;0.90;;
31382;SDS011;18014;49.228;11.102;2023-04-01T03:18:42;3.60;;;0.70;;
31382;SDS011;18014;49.228;11.102;2023-04-01T03:20:44;2.33;;;1.02;;
31382;SDS011;18014;49.228;11.102;2023-04-01T03:22:45;1.88;;;0.80;;
31382;SDS011;18014;49.228;11.102;2023-04-01T03:24:47;3.60;;;0.50;;
31382;SDS011;18014;49.228;11.102;2023-04-01T03:26:48;3.47;;;0.70;;
31382;SDS011;18014;49.228;11.102;2023-04-01T03:28:49;2.28;;;0.70;;
31382;SDS011;18014;49.228;11.102;2023-04-01T03:30:50;3.33;;;0.90;;
31382;SDS011;18014;49.228;11.102;2023-04-01T03:32:51;2.72;;;0.70;;
31382;SDS011;18014;49.228;11.102;2023-04-01T03:34:53;1.30;;;0.40;;
31382;SDS011;18014;49.228;11.102;2023-04-01T03:36:54;3.10;;;0.70;;
31382;SDS011;18014;49.228;11.102;2023-04-01T03:38:55;3.20;;;1.05;;
31382;SDS011;18014;49.228;11.102;2023-04-01T03:40:56;4.85;;;0.57;;
31382;SDS011;18014;49.228;11.102;2023-04-01T03:42:57;3.00;;;0.50;;
31382;SDS011;18014;49.228;11.102;2023-04-01T03:44:58;1.27;;;0.60;;
31382;SDS011;18014;49.228;11.102;2023-04-01T03:46:59;1.55;;;0.60;;
31382;SDS011;18014;49.228;11.102;2023-04-01T03:49:00;3.55;;;0.65;;
31382;SDS011;18014;49.228;11.102;2023-04-01T03:51:01;3.30;;;0.60;;
31382;SDS011;18014;49.228;11.102;2023-04-01T03:53:06;2.63;;;0.60;;
31382;SDS011;18014;49.228;11.102;2023-04-01T03:55:07;2.33;;;0.52;;
31382;SDS011;18014;49.228;11.102;2023-04-01T03:57:08;3.00;;;0.68;;
31382;SDS011;18014;49.228;11.102;2023-04-01T03:59:09;4.35;;;0.60;;
31382;SDS011;18014;49.228;11.102;2023-04-01T04:01:17;2.90;;;0.50;;
31382;SDS011;18014;49.228;11.102;2023-04-01T04:03:20;1.38;;;0.50;;
31382;SDS011;18014;49.228;11.102;2023-04-01T04:05:23;2.53;;;0.60;;
31382;SDS011;18014;49.228;11.102;2023-04-01T04:07:25;3.58;;;0.77;;
31382;SDS011;18014;49.228;11.102;2023-04-01T04:09:25;4.10;;;0.50;;
31382;SDS011;18014;49.228;11.102;2023-04-01T04:11:26;6.72;;;0.70;;
31382;SDS011;18014;49.228;11.102;2023-04-01T04:13:27;1.98;;;0.57;;
31382;SDS011;18014;49.228;11.102;2023-04-01T04:15:28;3.78;;;0.70;;
31382;SDS011;18014;49.228;11.102;2023-04-01T04:17:29;1.63;;;0.43;;
31382;SDS011;18014;49.228;11.102;2023-04-01T04:19:33;1.08;;;0.30;;
31382;SDS011;18014;49.228;11.102;2023-04-01T04:21:34;2.08;;;0.40;;
31382;SDS011;18014;49.228;11.102;2023-04-01T04:23:35;3.17;;;0.43;;
31382;SDS011;18014;49.228;11.102;2023-04-01T04:25:37;2.20;;;0.63;;
31382;SDS011;18014;49.228;11.102;2023-04-01T04:27:38;1.80;;;0.40;;
31382;SDS011;18014;49.228;11.102;2023-04-01T04:29:39;2.05;;;0.45;;
31382;SDS011;18014;49.228;11.102;2023-04-01T04:31:40;3.60;;;0.57;;
31382;SDS011;18014;49.228;11.102;2023-04-01T04:33:41;1.90;;;0.70;;
31382;SDS011;18014;49.228;11.102;2023-04-01T04:35:42;1.80;;;0.30;;
31382;SDS011;18014;49.228;11.102;2023-04-01T04:37:43;3.67;;;0.45;;
31382;SDS011;18014;49.228;11.102;2023-04-01T04:39:44;1.80;;;0.30;;
31382;SDS011;18014;49.228;11.102;2023-04-01T04:41:45;0.82;;;0.32;;
31382;SDS011;18014;49.228;11.102;2023-04-01T04:43:50;1.40;;;0.45;;
31382;SDS011;18014;49.228;11.102;2023-04-01T04:45:55;0.80;;;0.40;;
31382;SDS011;18014;49.228;11.102;2023-04-01T04:47:56;1.90;;;0.40;;
31382;SDS011;18014;49.228;11.102;2023-04-01T04:49:57;1.67;;;0.40;;
31382;SDS011;18014;49.228;11.102;2023-04-01T04:51:58;0.60;;;0.20;;
31382;SDS011;18014;49.228;11.102;2023-04-01T04:53:59;2.92;;;0.47;;
31382;SDS011;18014;49.228;11.102;2023-04-01T04:56:00;1.48;;;0.30;;
31382;SDS011;18014;49.228;11.102;2023-04-01T04:58:01;1.23;;;0.30;;
31382;SDS011;18014;49.228;11.102;2023-04-01T05:00:02;2.88;;;0.32;;
31382;SDS011;18014;49.228;11.102;2023-04-01T05:02:04;2.40;;;0.60;;
31382;SDS011;18014;49.228;11.102;2023-04-01T05:04:05;1.35;;;0.30;;
31382;SDS011;18014;49.228;11.102;2023-04-01T05:06:07;0.98;;;0.30;;
31382;SDS011;18014;49.228;11.102;2023-04-01T05:08:10;2.75;;;0.40;;
31382;SDS011;18014;49.228;11.102;2023-04-01T05:10:11;1.05;;;0.43;;
31382;SDS011;18014;49.228;11.102;2023-04-01T05:12:12;0.68;;;0.40;;
31382;SDS011;18014;49.228;11.102;2023-04-01T05:14:14;1.38;;;0.20;;
31382;SDS011;18014;49.228;11.102;2023-04-01T05:16:17;1.58;;;0.52;;
31382;SDS011;18014;49.228;11.102;2023-04-01T05:18:19;1.38;;;0.25;;
31382;SDS011;18014;49.228;11.102;2023-04-01T05:20:20;2.30;;;0.77;;
31382;SDS011;18014;49.228;11.102;2023-04-01T05:22:21;1.33;;;0.30;;
31382;SDS011;18014;49.228;11.102;2023-04-01T05:24:22;2.00;;;0.32;;
31382;SDS011;18014;49.228;11.102;2023-04-01T05:26:23;1.50;;;1.15;;
31382;SDS011;18014;49.228;11.102;2023-04-01T05:28:24;1.10;;;0.47;;
31382;SDS011;18014;49.228;11.102;2023-04-01T05:30:25;1.52;;;0.40;;
31382;SDS011;18014;49.228;11.102;2023-04-01T05:32:26;1.23;;;0.90;;
31382;SDS011;18014;49.228;11.102;2023-04-01T05:34:27;1.13;;;0.40;;
31382;SDS011;18014;49.228;11.102;2023-04-01T05:36:28;1.30;;;0.40;;
31382;SDS011;18014;49.228;11.102;2023-04-01T05:38:29;0.80;;;0.43;;
31382;SDS011;18014;49.228;11.102;2023-04-01T05:40:30;0.32;;;0.20;;
31382;SDS011;18014;49.228;11.102;2023-04-01T05:42:31;0.52;;;0.20;;
31382;SDS011;18014;49.228;11.102;2023-04-01T05:44:33;2.20;;;0.45;;
31382;SDS011;18014;49.228;11.102;2023-04-01T05:46:35;1.42;;;0.30;;
31382;SDS011;18014;49.228;11.102;2023-04-01T05:48:36;1.65;;;0.50;;
31382;SDS011;18014;49.228;11.102;2023-04-01T05:50:39;1.13;;;0.20;;
31382;SDS011;18014;49.228;11.102;2023-04-01T05:52:41;0.75;;;0.20;;
31382;SDS011;18014;49.228;11.102;2023-04-01T05:54:42;3.03;;;0.63;;
31382;SDS011;18014;49.228;11.102;2023-04-01T05:56:43;3.80;;;1.05;;
31382;SDS011;18014;49.228;11.102;2023-04-01T05:58:46;1.55;;;0.30;;
31382;SDS011;18014;49.228;11.102;2023-04-01T06:00:50;1.02;;;0.30;;
31382;SDS011;18014;49.228;11.102;2023-04-01T06:02:51;3.38;;;0.40;;
31382;SDS011;18014;49.228;11.102;2023-04-01T06:04:54;1.73;;;0.50;;
31382;SDS011;18014;49.228;11.102;2023-04-01T06:07:12;2.75;;;0.20;;
31382;SDS011;18014;49.228;11.102;2023-04-01T06:09:18;0.70;;;0.20;;
31382;SDS011;18014;49.228;11.102;2023-04-01T06:11:32;0.40;;;0.20;;
31382;SDS011;18014;49.228;11.102;2023-04-01T06:13:50;1.98;;;0.43;;
31382;SDS011;18014;49.228;11.102;2023-04-01T06:20:42;0.80;;;0.30;;
31382;SDS011;18014;49.228;11.102;2023-04-01T06:27:54;1.45;;;0.38;;
31382;SDS011;18014;49.228;11.102;2023-04-01T06:32:24;1.63;;;0.43;;
31382;SDS011;18014;49.228;11.102;2023-04-01T06:48:33;1.00;;;0.30;;
31382;SDS011;18014;49.228;11.102;2023-04-01T06:50:52;1.83;;;0.65;;
31382;SDS011;18014;49.228;11.102;2023-04-01T06:57:49;2.10;;;0.63;;
31382;SDS011;18014;49.228;11.102;2023-04-01T06:59:54;3.20;;;0.47;;
31382;SDS011;18014;49.228;11.102;2023-04-01T07:01:59;0.50;;;0.30;;
31382;SDS011;18014;49.228;11.102;2023-04-01T07:06:31;1.48;;;0.70;;
31382;SDS011;18014;49.228;11.102;2023-04-01T07:08:36;3.63;;;0.50;;
31382;SDS011;18014;49.228;11.102;2023-04-01T07:12:58;1.60;;;0.40;;
31382;SDS011;18014;49.228;11.102;2023-04-01T07:15:26;1.02;;;0.32;;
31382;SDS011;18014;49.228;11.102;2023-04-01T07:17:31;1.10;;;0.30;;
31382;SDS011;18014;49.228;11.102;2023-04-01T07:19:39;0.73;;;0.40;;
31382;SDS011;18014;49.228;11.102;2023-04-01T07:22:33;1.55;;;0.50;;
31382;SDS011;18014;49.228;11.102;2023-04-01T07:24:31;0.88;;;0.68;;
31382;SDS011;18014;49.228;11.102;2023-04-01T07:26:34;0.77;;;0.45;;
31382;SDS011;18014;49.228;11.102;2023-04-01T07:28:35;0.88;;;0.30;;
31382;SDS011;18014;49.228;11.102;2023-04-01T07:37:27;1.10;;;0.30;;
31382;SDS011;18014;49.228;11.102;2023-04-01T07:40:10;1.63;;;0.30;;
31382;SDS011;18014;49.228;11.102;2023-04-01T07:43:05;0.55;;;0.20;;
31382;SDS011;18014;49.228;11.102;2023-04-01T07:49:25;1.60;;;0.45;;
31382;SDS011;18014;49.228;11.102;2023-04-01T07:51:29;1.38;;;0.25;;
31382;SDS011;18014;49.228;11.102;2023-04-01T07:53:48;1.90;;;0.50;;
31382;SDS011;18014;49.228;11.102;2023-04-01T07:56:16;0.55;;;0.30;;
31382;SDS011;18014;49.228;11.102;2023-04-01T08:01:01;0.98;;;0.45;;
31382;SDS011;18014;49.228;11.102;2023-04-01T08:05:55;0.50;;;0.40;;
31382;SDS011;18014;49.228;11.102;2023-04-01T08:17:12;1.17;;;0.38;;
31382;SDS011;18014;49.228;11.102;2023-04-01T08:19:43;0.73;;;0.40;;
31382;SDS011;18014;49.228;11.102;2023-04-01T08:22:12;1.63;;;0.35;;
31382;SDS011;18014;49.228;11.102;2023-04-01T08:24:43;2.72;;;0.40;;
31382;SDS011;18014;49.228;11.102;2023-04-01T08:26:48;1.63;;;0.50;;
31382;SDS011;18014;49.228;11.102;2023-04-01T08:29:30;2.40;;;0.45;;
31382;SDS011;18014;49.228;11.102;2023-04-01T08:31:37;0.77;;;0.30;;
31382;SDS011;18014;49.228;11.102;2023-04-01T08:33:43;1.38;;;0.30;;
31382;SDS011;18014;49.228;11.102;2023-04-01T08:36:08;0.68;;;0.20;;
31382;SDS011;18014;49.228;11.102;2023-04-01T08:38:46;1.95;;;0.40;;
31382;SDS011;18014;49.228;11.102;2023-04-01T08:41:01;1.27;;;0.35;;
31382;SDS011;18014;49.228;11.102;2023-04-01T08:45:40;0.82;;;0.35;;
31382;SDS011;18014;49.228;11.102;2023-04-01T08:50:39;1.40;;;0.35;;
31382;SDS011;18014;49.228;11.102;2023-04-01T08:58:04;1.80;;;0.40;;
31382;SDS011;18014;49.228;11.102;2023-04-01T09:00:30;1.98;;;0.38;;
31382;SDS011;18014;49.228;11.102;2023-04-01T09:20:50;0.40;;;0.28;;
31382;SDS011;18014;49.228;11.102;2023-04-01T09:25:21;1.60;;;0.35;;
31382;SDS011;18014;49.228;11.102;2023-04-01T09:27:26;0.60;;;0.30;;
31382;SDS011;18014;49.228;11.102;2023-04-01T09:34:10;0.88;;;0.50;;
31382;SDS011;18014;49.228;11.102;2023-04-01T09:36:45;1.63;;;0.22;;
31382;SDS011;18014;49.228;11.102;2023-04-01T09:41:36;0.90;;;0.30;;
31382;SDS011;18014;49.228;11.102;2023-04-01T09:46:29;1.75;;;0.30;;
31382;SDS011;18014;49.228;11.102;2023-04-01T09:48:41;2.63;;;0.30;;
31382;SDS011;18014;49.228;11.102;2023-04-01T09:51:13;0.50;;;0.30;;
31382;SDS011;18014;49.228;11.102;2023-04-01T10:00:37;1.60;;;0.57;;
31382;SDS011;18014;49.228;11.102;2023-04-01T10:10:46;1.17;;;0.30;;
31382;SDS011;18014;49.228;11.102;2023-04-01T10:17:41;1.75;;;0.43;;
31382;SDS011;18014;49.228;11.102;2023-04-01T10:21:08;0.77;;;0.55;;
31382;SDS011;18014;49.228;11.102;2023-04-01T10:29:42;0.52;;;0.38;;
31382;SDS011;18014;49.228;11.102;2023-04-01T10:32:14;0.63;;;0.38;;
31382;SDS011;18014;49.228;11.102;2023-04-01T10:34:44;0.40;;;0.30;;
31382;SDS011;18014;49.228;11.102;2023-04-01T10:51:53;1.52;;;0.40;;
31382;SDS011;18014;49.228;11.102;2023-04-01T10:54:13;2.28;;;1.02;;
31382;SDS011;18014;49.228;11.102;2023-04-01T10:59:14;0.20;;;0.20;;
31382;SDS011;18014;49.228;11.102;2023-04-01T11:12:53;1.52;;;0.50;;
31382;SDS011;18014;49.228;11.102;2023-04-01T11:15:31;0.60;;;0.20;;
31382;SDS011;18014;49.228;11.102;2023-04-01T11:19:58;0.75;;;0.45;;
31382;SDS011;18014;49.228;11.102;2023-04-01T11:27:01;2.47;;;0.98;;
31382;SDS011;18014;49.228;11.102;2023-04-01T11:29:28;1.90;;;0.57;;
31382;SDS011;18014;49.228;11.102;2023-04-01T11:34:35;1.52;;;0.50;;
31382;SDS011;18014;49.228;11.102;2023-04-01T11:41:27;3.25;;;1.42;;
31382;SDS011;18014;49.228;11.102;2023-04-01T11:50:42;1.40;;;0.65;;
31382;SDS011;18014;49.228;11.102;2023-04-01T11:53:10;1.40;;;1.00;;
31382;SDS011;18014;49.228;11.102;2023-04-01T11:55:38;1.80;;;0.70;;
31382;SDS011;18014;49.228;11.102;2023-04-01T11:58:02;0.73;;;0.50;;
31382;SDS011;18014;49.228;11.102;2023-04-01T12:00:19;0.55;;;0.55;;
31382;SDS011;18014;49.228;11.102;2023-04-01T12:05:03;1.17;;;0.75;;
31382;SDS011;18014;49.228;11.102;2023-04-01T12:07:17;0.28;;;0.20;;
31382;SDS011;18014;49.228;11.102;2023-04-01T12:11:50;0.60;;;0.32;;
31382;SDS011;18014;49.228;11.102;2023-04-01T12:14:08;0.40;;;0.40;;
31382;SDS011;18014;49.228;11.102;2023-04-01T12:23:36;0.93;;;0.40;;
31382;SDS011;18014;49.228;11.102;2023-04-01T12:30:35;0.28;;;0.28;;
31382;SDS011;18014;49.228;11.102;2023-04-01T12:32:44;0.85;;;0.30;;
31382;SDS011;18014;49.228;11.102;2023-04-01T12:37:09;0.50;;;0.28;;
31382;SDS011;18014;49.228;11.102;2023-04-01T12:42:07;0.50;;;0.30;;
31382;SDS011;18014;49.228;11.102;2023-04-01T12:44:16;0.88;;;0.30;;
31382;SDS011;18014;49.228;11.102;2023-04-01T12:49:34;1.27;;;0.63;;
31382;SDS011;18014;49.228;11.102;2023-04-01T12:56:49;0.57;;;0.57;;
31382;SDS011;18014;49.228;11.102;2023-04-01T13:04:45;0.73;;;0.40;;
31382;SDS011;18014;49.228;11.102;2023-04-01T13:07:04;2.83;;;0.47;;
31382;SDS011;18014;49.228;11.102;2023-04-01T13:16:31;1.80;;;0.35;;
31382;SDS011;18014;49.228;11.102;2023-04-01T13:18:52;0.38;;;0.38;;
31382;SDS011;18014;49.228;11.102;2023-04-01T13:23:42;0.85;;;0.40;;
31382;SDS011;18014;49.228;11.102;2023-04-01T13:26:06;0.30;;;0.20;;
31382;SDS011;18014;49.228;11.102;2023-04-01T13:28:25;0.50;;;0.45;;
31382;SDS011;18014;49.228;11.102;2023-04-01T13:32:43;0.75;;;0.50;;
31382;SDS011;18014;49.228;11.102;2023-04-01T13:35:08;0.88;;;0.40;;
31382;SDS011;18014;49.228;11.102;2023-04-01T13:37:22;1.30;;;0.45;;
31382;SDS011;18014;49.228;11.102;2023-04-01T13:46:27;0.40;;;0.35;;
31382;SDS011;18014;49.228;11.102;2023-04-01T13:55:45;0.40;;;0.38;;
31382;SDS011;18014;49.228;11.102;2023-04-01T13:58:03;0.90;;;0.30;;
31382;SDS011;18014;49.228;11.102;2023-04-01T14:00:25;0.52;;;0.20;;
31382;SDS011;18014;49.228;11.102;2023-04-01T14:14:08;1.52;;;0.40;;
31382;SDS011;18014;49.228;11.102;2023-04-01T14:21:33;0.35;;;0.30;;
31382;SDS011;18014;49.228;11.102;2023-04-01T14:26:01;0.25;;;0.20;;
31382;SDS011;18014;49.228;11.102;2023-04-01T14:36:08;0.22;;;0.22;;
31382;SDS011;18014;49.228;11.102;2023-04-01T14:38:02;0.45;;;0.40;;
31382;SDS011;18014;49.228;11.102;2023-04-01T14:40:59;1.27;;;0.30;;
31382;SDS011;18014;49.228;11.102;2023-04-01T14:45:24;0.60;;;0.20;;
31382;SDS011;18014;49.228;11.102;2023-04-01T14:47:50;1.15;;;0.40;;
31382;SDS011;18014;49.228;11.102;2023-04-01T14:50:06;0.20;;;0.15;;
31382;SDS011;18014;49.228;11.102;2023-04-01T14:54:35;1.02;;;0.20;;
31382;SDS011;18014;49.228;11.102;2023-04-01T14:56:46;0.10;;;0.10;;
31382;SDS011;18014;49.228;11.102;2023-04-01T14:58:50;0.50;;;0.38;;
31382;SDS011;18014;49.228;11.102;2023-04-01T15:03:09;0.30;;;0.30;;
31382;SDS011;18014;49.228;11.102;2023-04-01T15:16:25;1.75;;;0.35;;
31382;SDS011;18014;49.228;11.102;2023-04-01T15:33:21;0.20;;;0.20;;
31382;SDS011;18014;49.228;11.102;2023-04-01T15:46:49;0.10;;;0.10;;
31382;SDS011;18014;49.228;11.102;2023-04-01T15:51:16;0.20;;;0.20;;
31382;SDS011;18014;49.228;11.102;2023-04-01T16:07:55;0.20;;;0.20;;
31382;SDS011;18014;49.228;11.102;2023-04-01T16:10:06;1.65;;;0.52;;
31382;SDS011;18014;49.228;11.102;2023-04-01T16:26:39;0.32;;;0.20;;
31382;SDS011;18014;49.228;11.102;2023-04-01T16:28:57;0.25;;;0.20;;
31382;SDS011;18014;49.228;11.102;2023-04-01T16:47:21;0.15;;;0.10;;
31382;SDS011;18014;49.228;11.102;2023-04-01T16:52:14;1.08;;;0.20;;
31382;SDS011;18014;49.228;11.102;2023-04-01T16:56:36;0.17;;;0.10;;
31382;SDS011;18014;49.228;11.102;2023-04-01T16:59:01;0.38;;;0.20;;
31382;SDS011;18014;49.228;11.102;2023-04-01T17:01:16;0.50;;;0.20;;
31382;SDS011;18014;49.228;11.102;2023-04-01T17:03:40;0.13;;;0.13;;
31382;SDS011;18014;49.228;11.102;2023-04-01T17:10:16;0.10;;;0.10;;
31382;SDS011;18014;49.228;11.102;2023-04-01T17:12:27;0.00;;;0.00;;
31382;SDS011;18014;49.228;11.102;2023-04-01T17:14:59;0.63;;;0.22;;
31382;SDS011;18014;49.228;11.102;2023-04-01T17:17:09;0.30;;;0.30;;
31382;SDS011;18014;49.228;11.102;2023-04-01T17:29:17;0.10;;;0.10;;
31382;SDS011;18014;49.228;11.102;2023-04-01T17:38:49;3.72;;;0.30;;
31382;SDS011;18014;49.228;11.102;2023-04-01T17:43:36;0.30;;;0.30;;
31382;SDS011;18014;49.228;11.102;2023-04-01T17:45:54;0.40;;;0.30;;
31382;SDS011;18014;49.228;11.102;2023-04-01T17:53:07;0.80;;;0.57;;
31382;SDS011;18014;49.228;11.102;2023-04-01T17:59:49;0.40;;;0.38;;
31382;SDS011;18014;49.228;11.102;2023-04-01T18:02:21;0.40;;;0.40;;
31382;SDS011;18014;49.228;11.102;2023-04-01T18:04:57;0.30;;;0.30;;
31382;SDS011;18014;49.228;11.102;2023-04-01T18:12:24;0.38;;;0.38;;
31382;SDS011;18014;49.228;11.102;2023-04-01T18:15:00;2.72;;;0.40;;
31382;SDS011;18014;49.228;11.102;2023-04-01T18:17:41;1.33;;;0.20;;
31382;SDS011;18014;49.228;11.102;2023-04-01T18:22:38;1.48;;;0.70;;
31382;SDS011;18014;49.228;11.102;2023-04-01T18:26:42;0.57;;;0.40;;
31382;SDS011;18014;49.228;11.102;2023-04-01T18:28:50;0.40;;;0.22;;
31382;SDS011;18014;49.228;11.102;2023-04-01T18:35:53;0.30;;;0.30;;
31382;SDS011;18014;49.228;11.102;2023-04-01T18:38:31;0.60;;;0.32;;
31382;SDS011;18014;49.228;11.102;2023-04-01T18:40:42;0.68;;;0.45;;
31382;SDS011;18014;49.228;11.102;2023-04-01T18:45:22;0.75;;;0.50;;
31382;SDS011;18014;49.228;11.102;2023-04-01T18:47:44;0.70;;;0.50;;
31382;SDS011;18014;49.228;11.102;2023-04-01T18:52:22;0.63;;;0.30;;
31382;SDS011;18014;49.228;11.102;2023-04-01T18:57:19;0.30;;;0.30;;
31382;SDS011;18014;49.228;11.102;2023-04-01T18:59:25;2.15;;;0.50;;
31382;SDS011;18014;49.228;11.102;2023-04-01T19:01:40;1.17;;;0.30;;
31382;SDS011;18014;49.228;11.102;2023-04-01T19:04:18;0.50;;;0.50;;
31382;SDS011;18014;49.228;11.102;2023-04-01T19:08:54;1.05;;;0.60;;
31382;SDS011;18014;49.228;11.102;2023-04-01T19:11:06;0.70;;;0.50;;
31382;SDS011;18014;49.228;11.102;2023-04-01T19:13:22;0.95;;;0.60;;
31382;SDS011;18014;49.228;11.102;2023-04-01T19:16:00;1.08;;;0.50;;
31382;SDS011;18014;49.228;11.102;2023-04-01T19:20:47;0.77;;;0.30;;
31382;SDS011;18014;49.228;11.102;2023-04-01T19:25:51;0.73;;;0.50;;
31382;SDS011;18014;49.228;11.102;2023-04-01T19:33:12;0.73;;;0.40;;
31382;SDS011;18014;49.228;11.102;2023-04-01T19:37:54;0.52;;;0.30;;
31382;SDS011;18014;49.228;11.102;2023-04-01T19:48:52;1.95;;;0.50;;
31382;SDS011;18014;49.228;11.102;2023-04-01T19:51:00;1.25;;;0.40;;
31382;SDS011;18014;49.228;11.102;2023-04-01T19:53:18;0.93;;;0.30;;
31382;SDS011;18014;49.228;11.102;2023-04-01T19:55:36;2.03;;;0.60;;
31382;SDS011;18014;49.228;11.102;2023-04-01T20:00:02;0.52;;;0.30;;
31382;SDS011;18014;49.228;11.102;2023-04-01T20:04:50;1.55;;;0.55;;
31382;SDS011;18014;49.228;11.102;2023-04-01T20:15:35;3.53;;;0.60;;
31382;SDS011;18014;49.228;11.102;2023-04-01T20:17:41;1.20;;;0.40;;
31382;SDS011;18014;49.228;11.102;2023-04-01T20:19:48;1.42;;;0.50;;
31382;SDS011;18014;49.228;11.102;2023-04-01T20:21:58;0.70;;;0.35;;
31382;SDS011;18014;49.228;11.102;2023-04-01T20:24:07;0.95;;;0.25;;
31382;SDS011;18014;49.228;11.102;2023-04-01T20:26:30;0.47;;;0.32;;
31382;SDS011;18014;49.228;11.102;2023-04-01T20:28:42;1.23;;;0.55;;
31382;SDS011;18014;49.228;11.102;2023-04-01T20:52:19;0.60;;;0.40;;
31382;SDS011;18014;49.228;11.102;2023-04-01T20:59:16;1.02;;;0.50;;
31382;SDS011;18014;49.228;11.102;2023-04-01T21:01:41;1.33;;;0.38;;
31382;SDS011;18014;49.228;11.102;2023-04-01T21:06:44;0.70;;;0.50;;
31382;SDS011;18014;49.228;11.102;2023-04-01T21:11:36;3.25;;;0.57;;
31382;SDS011;18014;49.228;11.102;2023-04-01T21:18:47;2.10;;;0.50;;
31382;SDS011;18014;49.228;11.102;2023-04-01T21:25:43;0.65;;;0.30;;
31382;SDS011;18014;49.228;11.102;2023-04-01T21:30:17;1.00;;;0.30;;
31382;SDS011;18014;49.228;11.102;2023-04-01T21:32:52;0.85;;;0.38;;